createdAt,value
2019-02-26T00:00:42.334Z,3.55
2019-02-26T00:03:11.803Z,3.55
2019-02-26T00:05:42.092Z,4.67
2019-02-26T00:08:14.580Z,3.42
2019-02-26T00:10:44.190Z,4.00
2019-02-26T00:13:15.125Z,4.37
2019-02-26T00:15:46.013Z,6.05
2019-02-26T00:18:18.947Z,4.20
2019-02-26T00:20:49.155Z,3.70
2019-02-26T00:23:21.614Z,4.60
2019-02-26T00:25:51.660Z,4.00
2019-02-26T00:28:22.077Z,4.10
2019-02-26T00:30:52.158Z,4.22
2019-02-26T00:33:24.661Z,5.50
2019-02-26T00:35:54.871Z,4.03
2019-02-26T00:38:24.879Z,3.77
2019-02-26T00:40:55.080Z,4.10
2019-02-26T00:43:27.907Z,4.92
2019-02-26T00:46:00.659Z,5.45
2019-02-26T00:48:31.950Z,3.77
2019-02-26T00:51:03.147Z,4.00
2019-02-26T00:53:33.203Z,4.75
2019-02-26T00:56:03.348Z,4.75
2019-02-26T00:58:38.960Z,6.97
2019-02-26T01:01:08.235Z,8.63
2019-02-26T01:03:40.132Z,6.28
2019-02-26T01:06:09.866Z,6.08
2019-02-26T01:08:42.521Z,5.42
2019-02-26T01:11:12.471Z,6.78
2019-02-26T01:13:43.007Z,6.30
2019-02-26T01:16:13.722Z,9.63
2019-02-26T01:18:44.374Z,4.42
2019-02-26T01:21:15.607Z,8.80
2019-02-26T01:23:46.047Z,8.35
2019-02-26T01:26:15.943Z,9.13
2019-02-26T01:28:48.310Z,8.73
2019-02-26T01:31:19.803Z,5.85
2019-02-26T01:33:50.904Z,12.10
2019-02-26T01:36:23.265Z,7.17
2019-02-26T01:38:53.189Z,6.30
2019-02-26T01:41:24.973Z,5.17
2019-02-26T01:43:54.685Z,6.25
2019-02-26T01:46:24.315Z,6.60
2019-02-26T01:48:55.208Z,9.18
2019-02-26T01:51:28.481Z,8.48
2019-02-26T01:53:57.835Z,5.67
2019-02-26T01:56:27.593Z,6.92
2019-02-26T01:59:02.066Z,5.87
2019-02-26T02:01:28.948Z,5.92
2019-02-26T02:03:59.240Z,5.45
2019-02-26T02:06:30.358Z,8.40
2019-02-26T02:09:01.297Z,6.72
2019-02-26T02:11:33.336Z,8.15
2019-02-26T02:14:05.762Z,5.60
2019-02-26T02:16:36.028Z,8.95
2019-02-26T02:19:06.159Z,9.90
2019-02-26T02:21:37.681Z,8.73
2019-02-26T02:24:10.703Z,7.90
2019-02-26T02:26:41.091Z,7.25
2019-02-26T02:29:12.766Z,7.22
2019-02-26T02:31:44.506Z,8.23
2019-02-26T02:34:14.938Z,8.05
2019-02-26T02:36:44.756Z,8.30
2019-02-26T02:39:15.663Z,9.13
2019-02-26T02:41:50.843Z,7.65
2019-02-26T02:44:20.364Z,10.53
2019-02-26T02:46:50.088Z,8.75
2019-02-26T02:49:20.059Z,8.55
2019-02-26T02:51:49.804Z,7.28
2019-02-26T02:54:20.969Z,8.88
2019-02-26T02:56:51.467Z,9.43
2019-02-26T02:59:22.108Z,7.70
2019-02-26T03:02:12.686Z,9.70
2019-02-26T03:04:42.289Z,8.08
2019-02-26T03:07:11.899Z,10.80
2019-02-26T03:09:43.218Z,10.82
2019-02-26T03:12:14.303Z,10.40
2019-02-26T03:14:45.248Z,9.85
2019-02-26T03:17:18.203Z,9.08
2019-02-26T03:19:46.582Z,9.75
2019-02-26T03:22:18.834Z,10.08
2019-02-26T03:24:51.361Z,9.08
2019-02-26T03:27:21.636Z,9.38
2019-02-26T03:29:52.691Z,10.30
2019-02-26T03:32:23.291Z,9.60
2019-02-26T03:34:53.969Z,9.05
2019-02-26T03:37:25.821Z,11.08
2019-02-26T03:39:57.400Z,8.43
2019-02-26T03:42:27.887Z,11.03
2019-02-26T03:44:59.658Z,10.68
2019-02-26T03:47:30.180Z,9.85
2019-02-26T03:50:00.666Z,9.23
2019-02-26T03:52:32.112Z,11.00
2019-02-26T03:55:03.550Z,11.68
2019-02-26T03:57:34.527Z,13.62
2019-02-26T04:00:06.515Z,10.38
2019-02-26T04:02:39.450Z,12.07
2019-02-26T04:05:10.099Z,12.55
2019-02-26T04:07:40.254Z,11.28
2019-02-26T04:10:10.246Z,9.70
2019-02-26T04:12:42.222Z,13.05
2019-02-26T04:15:14.829Z,11.20
2019-02-26T04:17:44.987Z,13.58
2019-02-26T04:20:16.554Z,14.20
2019-02-26T04:22:49.756Z,15.25
2019-02-26T04:25:27.827Z,10.95
2019-02-26T04:28:12.658Z,10.65
2019-02-26T04:31:18.473Z,11.83
2019-02-26T04:34:10.401Z,10.98
2019-02-26T04:37:27.386Z,13.48
2019-02-26T04:40:10.150Z,15.10
2019-02-26T04:43:10.450Z,12.63
2019-02-26T04:46:17.077Z,12.35
2019-02-26T04:48:47.612Z,13.45
2019-02-26T04:51:18.373Z,15.38
2019-02-26T04:53:51.169Z,15.78
2019-02-26T04:56:20.438Z,14.18
2019-02-26T04:58:50.832Z,13.72
2019-02-26T05:01:21.424Z,13.30
2019-02-26T05:03:51.932Z,14.83
2019-02-26T05:06:22.088Z,11.57
2019-02-26T05:08:52.371Z,12.37
2019-02-26T05:11:31.489Z,13.83
2019-02-26T05:13:53.967Z,15.15
2019-02-26T05:16:26.168Z,16.37
2019-02-26T05:18:58.386Z,15.43
2019-02-26T05:21:30.400Z,15.18
2019-02-26T05:24:00.253Z,18.52
2019-02-26T05:26:31.304Z,17.02
2019-02-26T05:29:01.219Z,17.48
2019-02-26T05:31:33.153Z,28.70
2019-02-26T05:34:03.703Z,28.95
2019-02-26T05:36:39.049Z,24.72
2019-02-26T05:39:08.384Z,23.70
2019-02-26T05:41:40.593Z,27.22
2019-02-26T05:44:10.911Z,25.12
2019-02-26T05:46:41.233Z,25.17
2019-02-26T05:49:14.104Z,57.00
2019-02-26T05:51:43.980Z,55.75
2019-02-26T05:54:17.725Z,21.25
2019-02-26T05:56:49.847Z,26.95
2019-02-26T05:59:21.489Z,22.32
2019-02-26T06:01:54.800Z,20.02
2019-02-26T06:04:22.678Z,14.78
2019-02-26T06:06:56.406Z,18.85
2019-02-26T06:09:26.140Z,34.60
2019-02-26T06:11:56.681Z,50.60
2019-02-26T06:14:27.559Z,29.67
2019-02-26T06:16:58.403Z,20.50
2019-02-26T06:19:45.884Z,21.07
2019-02-26T06:22:18.219Z,53.52
2019-02-26T06:24:48.166Z,22.37
2019-02-26T06:27:21.769Z,22.73
2019-02-26T06:29:52.838Z,33.80
2019-02-26T06:32:22.300Z,17.42
2019-02-26T06:34:52.288Z,14.28
2019-02-26T06:37:23.770Z,15.90
2019-02-26T06:39:55.673Z,17.37
2019-02-26T06:42:25.299Z,18.82
2019-02-26T06:44:55.594Z,13.88
2019-02-26T06:47:28.009Z,13.13
2019-02-26T06:49:58.085Z,13.93
2019-02-26T06:52:29.934Z,13.65
2019-02-26T06:55:02.972Z,15.75
2019-02-26T06:57:32.527Z,13.45
2019-02-26T07:00:04.254Z,14.90
2019-02-26T07:02:34.508Z,14.13
2019-02-26T07:05:04.625Z,14.95
2019-02-26T07:07:35.487Z,17.90
2019-02-26T07:10:06.575Z,14.53
2019-02-26T07:12:38.749Z,16.80
2019-02-26T07:15:14.055Z,15.83
2019-02-26T07:17:47.349Z,25.30
2019-02-26T07:20:17.118Z,29.10
2019-02-26T07:22:51.918Z,28.17
2019-02-26T07:25:23.476Z,22.60
2019-02-26T07:27:55.803Z,17.42
2019-02-26T07:30:26.387Z,15.53
2019-02-26T07:32:57.548Z,15.75
2019-02-26T07:35:39.615Z,18.77
2019-02-26T07:38:10.081Z,19.65
2019-02-26T07:40:40.549Z,26.62
2019-02-26T07:43:15.418Z,24.23
2019-02-26T07:45:45.627Z,21.48
2019-02-26T07:48:18.609Z,27.93
2019-02-26T07:50:50.823Z,26.23
2019-02-26T07:53:22.709Z,30.75
2019-02-26T07:55:56.844Z,26.02
2019-02-26T07:58:26.592Z,24.32
2019-02-26T08:00:59.613Z,21.07
2019-02-26T08:03:30.228Z,18.23
2019-02-26T08:06:06.678Z,27.50
2019-02-26T08:08:37.880Z,36.25
2019-02-26T08:11:09.876Z,31.07
2019-02-26T08:13:40.070Z,30.27
2019-02-26T08:16:11.114Z,49.15
2019-02-26T08:18:41.483Z,41.75
2019-02-26T08:21:12.104Z,48.78
2019-02-26T08:23:43.708Z,35.78
2019-02-26T08:26:15.515Z,29.90
2019-02-26T08:28:48.216Z,31.05
2019-02-26T08:31:20.526Z,30.25
2019-02-26T08:33:51.781Z,21.02
2019-02-26T08:36:23.053Z,19.87
2019-02-26T08:38:56.511Z,14.87
2019-02-26T08:41:26.167Z,17.52
2019-02-26T08:43:56.467Z,21.80
2019-02-26T08:46:27.100Z,18.25
2019-02-26T08:48:57.182Z,19.37
2019-02-26T08:51:27.632Z,20.23
2019-02-26T08:54:03.096Z,20.75
2019-02-26T08:56:34.266Z,19.07
2019-02-26T08:59:05.256Z,17.95
2019-02-26T09:01:35.684Z,17.35
2019-02-26T09:04:06.658Z,17.12
2019-02-26T09:06:37.537Z,15.48
2019-02-26T09:09:08.993Z,15.05
2019-02-26T09:11:40.086Z,14.95
2019-02-26T09:14:12.171Z,15.30
2019-02-26T09:16:47.703Z,14.45
2019-02-26T09:19:16.075Z,14.05
2019-02-26T09:21:47.805Z,15.75
2019-02-26T09:24:20.645Z,14.30
2019-02-26T09:26:52.094Z,13.32
2019-02-26T09:29:22.503Z,13.78
2019-02-26T09:31:52.596Z,12.43
2019-02-26T09:34:25.968Z,13.88
2019-02-26T09:36:58.115Z,15.20
2019-02-26T09:39:29.413Z,14.25
2019-02-26T09:42:04.066Z,13.68
2019-02-26T09:44:35.911Z,15.28
2019-02-26T09:47:07.561Z,15.28
2019-02-26T09:49:37.969Z,17.02
2019-02-26T09:52:08.261Z,14.05
2019-02-26T09:54:42.700Z,13.83
2019-02-26T09:57:15.509Z,19.70
2019-02-26T09:59:45.507Z,19.90
2019-02-26T10:02:17.368Z,18.45
2019-02-26T10:04:49.604Z,14.25
2019-02-26T10:07:19.747Z,17.37
2019-02-26T10:09:50.551Z,18.73
2019-02-26T10:12:20.814Z,19.85
2019-02-26T10:14:54.556Z,14.40
2019-02-26T10:17:26.555Z,14.20
2019-02-26T10:19:59.222Z,12.20
2019-02-26T10:22:33.295Z,15.18
2019-02-26T10:25:02.797Z,15.58
2019-02-26T10:28:03.030Z,14.55
2019-02-26T10:30:41.858Z,16.50
2019-02-26T10:33:22.883Z,15.63
2019-02-26T10:35:54.084Z,13.95
2019-02-26T10:38:28.875Z,12.60
2019-02-26T10:40:59.105Z,16.62
2019-02-26T10:43:28.737Z,15.28
2019-02-26T10:45:59.833Z,14.25
2019-02-26T10:48:30.649Z,16.40
2019-02-26T10:51:00.726Z,13.95
2019-02-26T10:53:33.608Z,15.40
2019-02-26T10:56:04.622Z,17.10
2019-02-26T10:58:37.592Z,14.45
2019-02-26T11:01:08.246Z,13.68
2019-02-26T11:03:41.660Z,13.00
2019-02-26T11:06:15.901Z,12.18
2019-02-26T11:08:44.771Z,12.10
2019-02-26T11:11:18.189Z,15.28
2019-02-26T11:13:51.193Z,11.85
2019-02-26T11:16:25.262Z,13.38
2019-02-26T11:18:51.990Z,14.33
2019-02-26T11:21:22.640Z,13.62
2019-02-26T11:23:53.459Z,11.43
2019-02-26T11:26:24.717Z,13.08
2019-02-26T11:28:54.950Z,11.75
2019-02-26T11:31:25.570Z,14.28
2019-02-26T11:34:00.236Z,15.38
2019-02-26T11:36:32.962Z,13.40
2019-02-26T11:39:02.237Z,13.38
2019-02-26T11:41:35.826Z,12.23
2019-02-26T11:44:09.854Z,13.70
2019-02-26T11:46:38.181Z,13.55
2019-02-26T11:49:11.961Z,14.07
2019-02-26T11:51:43.283Z,12.47
2019-02-26T11:54:15.096Z,12.98
2019-02-26T11:56:47.405Z,13.05
2019-02-26T11:59:19.459Z,13.32
2019-02-26T12:01:54.232Z,14.45
2019-02-26T12:04:25.093Z,11.40
2019-02-26T12:06:58.523Z,10.03
2019-02-26T12:09:30.017Z,13.03
2019-02-26T12:12:03.283Z,10.50
2019-02-26T12:14:34.744Z,12.45
2019-02-26T12:17:03.969Z,12.10
2019-02-26T12:19:37.163Z,11.33
2019-02-26T12:22:07.363Z,10.72
2019-02-26T12:24:38.088Z,13.10
2019-02-26T12:27:09.752Z,15.25
2019-02-26T12:29:42.671Z,14.75
2019-02-26T12:32:12.052Z,12.43
2019-02-26T12:34:44.601Z,16.02
2019-02-26T12:37:14.355Z,14.07
2019-02-26T12:39:47.374Z,13.20
2019-02-26T12:42:18.487Z,14.23
2019-02-26T12:44:49.357Z,13.48
2019-02-26T12:47:21.782Z,18.32
2019-02-26T12:49:52.412Z,14.95
2019-02-26T12:52:25.103Z,11.22
2019-02-26T12:54:55.513Z,12.68
2019-02-26T12:57:28.890Z,10.82
2019-02-26T12:59:58.768Z,11.12
2019-02-26T13:02:29.020Z,11.03
2019-02-26T13:04:59.360Z,10.38
2019-02-26T13:07:29.173Z,14.07
2019-02-26T13:10:03.509Z,16.05
2019-02-26T13:12:32.602Z,11.12
2019-02-26T13:15:05.760Z,12.23
2019-02-26T13:17:35.842Z,9.65
2019-02-26T13:20:11.076Z,10.80
2019-02-26T13:22:45.422Z,9.38
2019-02-26T13:25:17.873Z,11.43
2019-02-26T13:27:48.395Z,11.85
2019-02-26T13:30:21.463Z,11.20
2019-02-26T13:32:58.139Z,15.65
2019-02-26T13:35:23.324Z,12.55
2019-02-26T13:37:53.350Z,13.60
2019-02-26T13:40:25.295Z,12.43
2019-02-26T13:45:33.958Z,11.85
2019-02-26T13:48:04.272Z,12.43
2019-02-26T13:50:39.140Z,13.62
2019-02-26T13:53:10.008Z,12.05
2019-02-26T13:55:42.537Z,13.78
2019-02-26T13:58:14.012Z,17.12
2019-02-26T14:01:02.849Z,10.98
2019-02-26T14:03:33.118Z,12.07
2019-02-26T14:06:05.888Z,16.48
2019-02-26T14:08:39.660Z,14.55
2019-02-26T14:11:14.240Z,15.63
2019-02-26T14:13:45.188Z,11.00
2019-02-26T14:16:15.195Z,11.10
2019-02-26T14:18:45.485Z,15.15
2019-02-26T14:21:19.118Z,9.03
2019-02-26T14:24:01.513Z,10.63
2019-02-26T14:26:43.979Z,11.22
2019-02-26T14:29:42.183Z,10.98
2019-02-26T14:32:16.898Z,11.50
2019-02-26T14:34:53.107Z,9.63
2019-02-26T14:37:23.208Z,10.28
2019-02-26T14:39:55.379Z,14.40
2019-02-26T14:42:27.811Z,11.28
2019-02-26T14:44:59.060Z,9.70
2019-02-26T14:47:31.260Z,12.88
2019-02-26T14:50:02.614Z,11.35
2019-02-26T14:52:33.638Z,11.43
2019-02-26T14:55:04.292Z,13.00
2019-02-26T14:57:34.609Z,13.30
2019-02-26T15:00:04.978Z,13.43
2019-02-26T15:02:35.776Z,10.05
2019-02-26T15:05:10.425Z,13.28
2019-02-26T15:07:40.900Z,10.80
2019-02-26T15:10:12.406Z,13.60
2019-02-26T15:12:47.629Z,11.10
2019-02-26T15:15:23.771Z,13.95
2019-02-26T15:18:10.844Z,15.08
2019-02-26T15:20:42.596Z,11.12
2019-02-26T15:23:14.502Z,10.75
2019-02-26T15:25:50.549Z,11.83
2019-02-26T15:28:23.615Z,11.08
2019-02-26T15:31:12.722Z,13.22
2019-02-26T15:33:52.524Z,12.50
2019-02-26T15:36:32.230Z,14.15
2019-02-26T15:39:12.597Z,14.75
2019-02-26T15:41:45.730Z,12.35
2019-02-26T15:44:16.954Z,10.23
2019-02-26T15:46:49.841Z,10.20
2019-02-26T15:49:20.186Z,11.73
2019-02-26T15:51:58.727Z,9.28
2019-02-26T15:54:29.099Z,9.18
2019-02-26T15:58:03.387Z,14.90
2019-02-26T16:00:45.873Z,10.80
2019-02-26T16:03:21.346Z,10.40
2019-02-26T16:06:05.606Z,12.00
2019-02-26T16:08:52.573Z,17.80
2019-02-26T16:11:41.751Z,13.38
2019-02-26T16:18:14.654Z,12.20
2019-02-26T16:21:05.789Z,11.12
2019-02-26T16:23:46.551Z,10.45
2019-02-26T16:26:18.187Z,8.25
2019-02-26T16:29:23.054Z,10.25
2019-02-26T16:32:02.700Z,12.43
2019-02-26T16:34:39.398Z,10.70
2019-02-26T16:37:12.177Z,14.68
2019-02-26T16:39:44.536Z,10.78
2019-02-26T16:42:14.765Z,13.93
2019-02-26T16:44:45.158Z,11.97
2019-02-26T16:47:15.367Z,17.23
2019-02-26T16:49:52.696Z,12.07
2019-02-26T16:52:22.186Z,13.93
2019-02-26T16:54:52.752Z,15.05
2019-02-26T16:57:30.209Z,18.75
2019-02-26T17:00:15.712Z,21.55
2019-02-26T17:02:47.214Z,17.48
2019-02-26T17:05:28.535Z,18.02
2019-02-26T17:07:55.561Z,39.38
2019-02-26T17:10:29.072Z,27.87
2019-02-26T17:13:01.723Z,18.95
2019-02-26T17:15:29.229Z,17.52
2019-02-26T17:17:59.306Z,15.25
2019-02-26T17:20:29.595Z,17.70
2019-02-26T17:23:14.550Z,42.70
2019-02-26T17:25:46.820Z,19.90
2019-02-26T17:28:22.603Z,17.35
2019-02-26T17:30:57.757Z,17.07
2019-02-26T17:33:36.950Z,17.20
2019-02-26T17:36:09.900Z,17.95
2019-02-26T17:38:45.350Z,17.65
2019-02-26T17:41:23.057Z,16.37
2019-02-26T17:43:56.813Z,24.60
2019-02-26T17:46:34.287Z,25.15
2019-02-26T17:49:05.549Z,23.22
2019-02-26T17:51:54.059Z,19.60
2019-02-26T17:54:34.732Z,19.57
2019-02-26T17:57:05.546Z,19.77
2019-02-26T17:59:38.245Z,17.55
2019-02-26T18:02:18.276Z,17.67
2019-02-26T18:04:48.966Z,28.27
2019-02-26T18:07:19.644Z,24.72
2019-02-26T18:09:53.144Z,19.67
2019-02-26T18:12:23.391Z,18.75
2019-02-26T18:14:58.273Z,21.75
2019-02-26T18:17:26.456Z,19.55
2019-02-26T18:20:00.125Z,24.40
2019-02-26T18:22:36.672Z,21.93
2019-02-26T18:25:08.492Z,20.72
2019-02-26T18:27:52.039Z,17.98
2019-02-26T18:30:24.556Z,18.55
2019-02-26T18:33:47.528Z,21.48
2019-02-26T18:36:59.461Z,46.30
2019-02-26T18:39:32.437Z,23.83
2019-02-26T18:42:08.285Z,18.35
2019-02-26T18:44:48.017Z,17.87
2019-02-26T18:47:20.635Z,18.70
2019-02-26T18:49:55.530Z,18.40
2019-02-26T18:52:29.739Z,22.70
2019-02-26T18:55:00.092Z,20.17
2019-02-26T18:57:30.844Z,18.82
2019-02-26T19:00:16.522Z,26.40
2019-02-26T19:02:48.404Z,24.32
2019-02-26T19:05:27.571Z,24.27
2019-02-26T19:08:05.579Z,16.77
2019-02-26T19:10:53.342Z,19.23
2019-02-26T19:13:24.082Z,21.93
2019-02-26T19:15:53.696Z,25.62
2019-02-26T19:18:24.415Z,21.37
2019-02-26T19:20:58.517Z,19.40
2019-02-26T19:23:31.419Z,45.30
2019-02-26T19:26:00.840Z,158.68
2019-02-26T19:28:31.618Z,84.47
2019-02-26T19:31:02.213Z,58.60
2019-02-26T19:33:32.727Z,153.85
2019-02-26T19:36:13.609Z,103.30
2019-02-26T19:38:43.775Z,71.30
2019-02-26T19:41:15.730Z,39.15
2019-02-26T19:43:46.740Z,21.97
2019-02-26T19:46:17.885Z,20.17
2019-02-26T19:48:48.099Z,18.35
2019-02-26T19:51:21.858Z,20.30
2019-02-26T19:53:50.193Z,16.05
2019-02-26T19:56:23.179Z,14.65
2019-02-26T19:59:03.780Z,13.30
2019-02-26T20:01:34.712Z,11.22
2019-02-26T20:04:38.165Z,12.20
2019-02-26T20:07:06.134Z,16.40
2019-02-26T20:09:38.414Z,14.38
2019-02-26T20:12:10.032Z,10.98
2019-02-26T20:14:43.006Z,11.45
2019-02-26T20:17:14.900Z,11.20
2019-02-26T20:19:52.654Z,15.08
2019-02-26T20:22:33.460Z,13.10
2019-02-26T20:25:46.841Z,12.68
2019-02-26T20:28:35.439Z,11.70
2019-02-26T20:31:10.829Z,10.95
2019-02-26T20:33:43.931Z,10.93
2019-02-26T20:36:17.851Z,9.60
2019-02-26T20:38:53.315Z,10.78
2019-02-26T20:41:46.419Z,11.73
2019-02-26T20:44:24.635Z,14.10
2019-02-26T20:47:39.895Z,11.88
2019-02-26T20:50:01.431Z,10.88
2019-02-26T20:52:33.380Z,9.40
2019-02-26T20:55:08.790Z,11.03
2019-02-26T20:57:39.795Z,12.73
2019-02-26T21:00:12.932Z,11.10
2019-02-26T21:02:43.232Z,13.20
2019-02-26T21:05:12.872Z,10.40
2019-02-26T21:07:43.800Z,11.88
2019-02-26T21:10:15.910Z,10.88
2019-02-26T21:12:47.009Z,12.70
2019-02-26T21:15:18.464Z,9.88
2019-02-26T21:17:48.759Z,11.57
2019-02-26T21:20:18.917Z,10.15
2019-02-26T21:22:49.443Z,10.23
2019-02-26T21:25:19.906Z,7.97
2019-02-26T21:27:50.892Z,10.10
2019-02-26T21:30:20.968Z,9.55
2019-02-26T21:32:52.111Z,10.50
2019-02-26T21:35:22.362Z,8.98
2019-02-26T21:37:53.259Z,8.48
2019-02-26T21:40:26.173Z,8.40
2019-02-26T21:42:56.415Z,6.67
2019-02-26T21:45:26.645Z,7.28
2019-02-26T21:47:57.382Z,6.85
2019-02-26T21:50:27.879Z,5.75
2019-02-26T21:52:59.363Z,7.08
2019-02-26T21:55:32.659Z,8.90
2019-02-26T21:58:02.686Z,7.65
2019-02-26T22:00:32.838Z,6.75
2019-02-26T22:03:03.403Z,8.05
2019-02-26T22:05:37.404Z,7.25
2019-02-26T22:08:05.687Z,8.70
2019-02-26T22:10:36.850Z,7.25
2019-02-26T22:13:06.984Z,17.45
2019-02-26T22:15:37.104Z,12.15
2019-02-26T22:18:06.886Z,13.85
2019-02-26T22:20:37.348Z,5.80
2019-02-26T22:23:07.124Z,5.87
2019-02-26T22:25:37.752Z,10.00
2019-02-26T22:28:09.214Z,10.20
2019-02-26T22:30:39.566Z,14.35
2019-02-26T22:33:09.903Z,13.93
2019-02-26T22:35:40.474Z,7.97
2019-02-26T22:38:12.669Z,5.60
2019-02-26T22:40:43.091Z,4.95
2019-02-26T22:43:13.774Z,6.25
2019-02-26T22:45:44.080Z,5.15
2019-02-26T22:48:14.241Z,5.00
2019-02-26T22:50:43.977Z,6.87
2019-02-26T22:53:14.513Z,2.33
2019-02-26T22:55:44.177Z,2.00
2019-02-26T22:58:14.152Z,2.30
2019-02-26T23:01:39.005Z,3.85
2019-02-26T23:04:08.789Z,1.77
2019-02-26T23:06:38.667Z,4.05
2019-02-26T23:09:17.895Z,1.92
2019-02-26T23:11:48.326Z,5.67
2019-02-26T23:14:19.068Z,5.97
2019-02-26T23:16:51.657Z,10.18
2019-02-26T23:19:21.915Z,7.55
2019-02-26T23:21:52.330Z,6.35
2019-02-26T23:24:22.382Z,3.52
2019-02-26T23:26:52.633Z,4.62
2019-02-26T23:29:22.375Z,3.52
2019-02-26T23:31:52.535Z,4.28
2019-02-26T23:34:23.101Z,4.33
2019-02-26T23:36:53.925Z,3.67
2019-02-26T23:39:24.864Z,5.70
2019-02-26T23:41:56.466Z,4.85
2019-02-26T23:44:26.445Z,9.83
2019-02-26T23:46:57.181Z,11.68
2019-02-26T23:49:27.062Z,9.60
2019-02-26T23:51:58.041Z,13.35
2019-02-26T23:54:28.613Z,23.30
2019-02-26T23:56:59.552Z,18.02
2019-02-26T23:59:29.330Z,20.40
